createdAt,value
2023-05-07T00:01:03.569Z,16.00
2023-05-07T00:03:30.835Z,15.90
2023-05-07T00:05:59.505Z,15.90
2023-05-07T00:08:26.739Z,15.90
2023-05-07T00:10:54.196Z,15.90
2023-05-07T00:13:24.149Z,15.80
2023-05-07T00:15:52.613Z,15.80
2023-05-07T00:18:22.220Z,15.80
2023-05-07T00:20:50.551Z,15.80
2023-05-07T00:23:17.755Z,15.80
2023-05-07T00:25:44.868Z,15.70
2023-05-07T00:28:12.701Z,15.70
2023-05-07T00:30:39.854Z,15.70
2023-05-07T00:33:07.211Z,15.70
2023-05-07T00:35:34.366Z,15.70
2023-05-07T00:38:02.932Z,15.60
2023-05-07T00:40:29.983Z,15.60
2023-05-07T00:42:59.440Z,15.60
2023-05-07T00:45:29.806Z,15.60
2023-05-07T00:47:59.268Z,15.50
2023-05-07T00:50:27.777Z,15.50
2023-05-07T00:52:55.853Z,15.50
2023-05-07T00:55:24.776Z,15.50
2023-05-07T00:57:52.395Z,15.50
2023-05-07T01:00:20.449Z,15.50
2023-05-07T01:02:47.809Z,15.40
2023-05-07T01:05:18.221Z,15.40
2023-05-07T01:07:46.639Z,15.40
2023-05-07T01:10:14.552Z,15.40
2023-05-07T01:12:43.615Z,15.40
2023-05-07T01:15:11.510Z,15.40
2023-05-07T01:17:41.280Z,15.40
2023-05-07T01:20:09.847Z,15.40
2023-05-07T01:22:39.880Z,15.40
2023-05-07T01:25:10.832Z,15.40
2023-05-07T01:27:38.328Z,15.40
2023-05-07T01:30:06.457Z,15.40
2023-05-07T01:32:57.914Z,15.40
2023-05-07T01:35:30.184Z,15.50
2023-05-07T01:37:57.859Z,15.50
2023-05-07T01:40:26.928Z,15.50
2023-05-07T01:42:55.774Z,15.60
2023-05-07T01:45:23.058Z,15.60
2023-05-07T01:47:53.295Z,15.70
2023-05-07T01:50:21.404Z,15.70
2023-05-07T01:52:51.316Z,15.70
2023-05-07T01:55:19.584Z,15.80
2023-05-07T01:57:47.768Z,15.80
2023-05-07T02:00:15.113Z,15.90
2023-05-07T02:02:42.980Z,15.90
2023-05-07T02:05:10.562Z,15.90
2023-05-07T02:07:37.744Z,15.90
2023-05-07T02:10:06.178Z,16.00
2023-05-07T02:12:35.078Z,15.90
2023-05-07T02:15:02.432Z,15.90
2023-05-07T02:17:32.865Z,15.90
2023-05-07T02:20:00.893Z,16.00
2023-05-07T02:22:28.026Z,15.90
2023-05-07T02:24:55.180Z,16.00
2023-05-07T02:27:23.380Z,16.00
2023-05-07T02:29:50.534Z,16.00
2023-05-07T02:32:17.726Z,16.10
2023-05-07T02:34:45.505Z,16.10
2023-05-07T02:37:12.681Z,16.10
2023-05-07T02:39:39.784Z,16.10
2023-05-07T02:42:06.882Z,16.00
2023-05-07T02:44:34.016Z,16.00
2023-05-07T02:47:02.638Z,16.00
2023-05-07T02:49:31.816Z,15.90
2023-05-07T02:51:58.895Z,15.90
2023-05-07T02:54:26.232Z,15.80
2023-05-07T02:56:53.430Z,15.80
2023-05-07T02:59:20.602Z,15.80
2023-05-07T03:01:47.935Z,15.70
2023-05-07T03:04:15.174Z,15.70
2023-05-07T03:06:42.490Z,15.70
2023-05-07T03:09:09.683Z,15.70
2023-05-07T03:11:39.401Z,15.50
2023-05-07T03:14:06.505Z,15.50
2023-05-07T03:16:33.980Z,15.40
2023-05-07T03:19:01.237Z,15.40
2023-05-07T03:21:28.534Z,15.30
2023-05-07T03:23:55.796Z,15.20
2023-05-07T03:26:23.193Z,15.20
2023-05-07T03:28:50.584Z,15.10
2023-05-07T03:31:18.055Z,15.10
2023-05-07T03:33:56.601Z,15.10
2023-05-07T03:36:24.515Z,15.10
2023-05-07T03:38:51.656Z,15.10
2023-05-07T03:41:18.963Z,15.10
2023-05-07T03:43:47.415Z,15.10
2023-05-07T03:46:14.947Z,15.10
2023-05-07T03:48:42.128Z,15.10
2023-05-07T03:51:09.246Z,15.10
2023-05-07T03:53:36.440Z,15.10
2023-05-07T03:56:04.988Z,15.10
2023-05-07T03:58:33.261Z,15.10
2023-05-07T04:01:02.754Z,15.10
2023-05-07T04:03:30.796Z,15.20
2023-05-07T04:05:59.313Z,15.10
2023-05-07T04:08:29.554Z,15.10
2023-05-07T04:11:01.303Z,15.10
2023-05-07T04:13:29.104Z,15.20
2023-05-07T04:16:01.423Z,15.10
2023-05-07T04:18:29.297Z,15.10
2023-05-07T04:20:56.479Z,15.20
2023-05-07T04:23:23.809Z,15.20
2023-05-07T04:25:52.526Z,15.20
2023-05-07T04:28:19.637Z,15.20
2023-05-07T04:30:49.990Z,15.20
2023-05-07T04:33:18.427Z,15.20
2023-05-07T04:35:45.557Z,15.20
2023-05-07T04:38:12.795Z,15.20
2023-05-07T04:40:40.215Z,15.20
2023-05-07T04:43:09.106Z,15.10
2023-05-07T04:45:37.503Z,15.10
2023-05-07T04:48:05.050Z,15.10
2023-05-07T04:50:32.418Z,15.10
2023-05-07T04:52:59.637Z,15.10
2023-05-07T04:55:26.795Z,15.10
2023-05-07T04:57:55.624Z,15.10
2023-05-07T05:00:23.999Z,15.00
2023-05-07T05:02:51.268Z,15.00
2023-05-07T05:05:18.579Z,15.10
2023-05-07T05:07:46.813Z,15.10
2023-05-07T05:10:14.352Z,15.20
2023-05-07T05:12:41.509Z,15.30
2023-05-07T05:15:09.997Z,15.30
2023-05-07T05:17:38.707Z,15.30
2023-05-07T05:20:06.947Z,15.50
2023-05-07T05:22:41.364Z,15.60
2023-05-07T05:25:08.964Z,15.70
2023-05-07T05:27:36.763Z,15.80
2023-05-07T05:30:05.184Z,15.90
2023-05-07T05:32:32.356Z,16.00
2023-05-07T05:34:59.589Z,16.10
2023-05-07T05:37:26.807Z,16.20
2023-05-07T05:39:55.731Z,16.30
2023-05-07T05:42:22.829Z,16.30
2023-05-07T05:44:50.278Z,16.30
2023-05-07T05:47:26.829Z,16.30
2023-05-07T05:49:54.033Z,16.40
2023-05-07T05:52:21.242Z,16.30
2023-05-07T05:54:52.855Z,16.40
2023-05-07T05:57:20.373Z,16.30
2023-05-07T05:59:48.514Z,16.30
2023-05-07T06:02:31.226Z,16.30
2023-05-07T06:04:58.615Z,16.30
2023-05-07T06:07:28.677Z,16.50
2023-05-07T06:09:56.466Z,16.50
2023-05-07T06:12:27.568Z,16.60
2023-05-07T06:15:03.851Z,16.70
2023-05-07T06:17:52.042Z,16.60
2023-05-07T06:20:19.737Z,16.50
2023-05-07T06:22:51.764Z,16.60
2023-05-07T06:25:25.977Z,16.60
2023-05-07T06:28:08.029Z,16.60
2023-05-07T06:30:41.407Z,16.50
2023-05-07T06:33:12.619Z,16.60
2023-05-07T06:35:41.287Z,16.70
2023-05-07T06:41:42.124Z,17.10
2023-05-07T06:44:13.886Z,17.30
2023-05-07T06:46:55.534Z,17.40
2023-05-07T06:49:23.046Z,17.40
2023-05-07T06:51:50.435Z,17.40
2023-05-07T06:54:17.697Z,17.50
2023-05-07T06:56:44.775Z,17.50
2023-05-07T06:59:11.948Z,17.50
2023-05-07T07:01:50.931Z,17.40
2023-05-07T07:04:29.604Z,17.40
2023-05-07T07:07:11.564Z,17.50
2023-05-07T07:09:38.856Z,17.60
2023-05-07T07:12:06.367Z,17.60
2023-05-07T07:14:33.525Z,17.60
2023-05-07T07:17:03.573Z,17.70
2023-05-07T07:19:37.493Z,17.80
2023-05-07T07:22:14.704Z,17.80
2023-05-07T07:24:42.662Z,17.70
2023-05-07T07:27:18.347Z,17.80
2023-05-07T07:29:45.665Z,17.90
2023-05-07T07:32:25.567Z,18.10
2023-05-07T07:37:48.182Z,18.10
2023-05-07T07:40:25.989Z,18.20
2023-05-07T07:43:01.216Z,18.30
2023-05-07T07:45:29.581Z,18.30
2023-05-07T07:48:09.569Z,18.20
2023-05-07T07:50:46.724Z,18.20
2023-05-07T07:53:23.016Z,18.10
2023-05-07T08:01:43.434Z,18.40
2023-05-07T08:04:10.703Z,18.60
2023-05-07T08:06:37.846Z,18.90
2023-05-07T08:09:06.383Z,18.70
2023-05-07T08:11:33.645Z,18.80
2023-05-07T08:14:01.284Z,18.90
2023-05-07T08:16:31.812Z,19.00
2023-05-07T08:18:58.960Z,19.20
2023-05-07T08:21:29.706Z,19.30
2023-05-07T08:24:12.146Z,19.40
2023-05-07T08:26:47.744Z,19.30
2023-05-07T08:29:15.235Z,19.30
2023-05-07T08:31:42.433Z,19.40
2023-05-07T08:34:10.211Z,19.40
2023-05-07T08:36:37.726Z,19.40
2023-05-07T08:39:04.885Z,19.50
2023-05-07T08:41:55.074Z,19.70
2023-05-07T08:44:24.033Z,19.80
2023-05-07T08:46:55.205Z,19.90
2023-05-07T08:49:22.748Z,19.90
2023-05-07T08:51:50.423Z,20.00
2023-05-07T08:54:27.288Z,19.80
2023-05-07T08:56:54.780Z,19.60
2023-05-07T08:59:22.222Z,19.50
2023-05-07T09:01:49.483Z,19.50
2023-05-07T09:04:16.936Z,19.60
2023-05-07T09:06:44.254Z,19.70
2023-05-07T09:09:22.685Z,19.90
2023-05-07T09:12:16.099Z,20.10
2023-05-07T09:14:44.639Z,20.10
2023-05-07T09:17:13.056Z,20.30
2023-05-07T09:19:40.382Z,20.50
2023-05-07T09:22:10.627Z,20.50
2023-05-07T09:27:31.717Z,20.60
2023-05-07T09:29:58.920Z,20.50
2023-05-07T09:32:26.409Z,20.60
2023-05-07T09:34:53.871Z,20.70
2023-05-07T09:37:21.178Z,20.90
2023-05-07T09:40:09.911Z,21.00
2023-05-07T09:42:44.751Z,21.30
2023-05-07T09:45:12.150Z,21.40
2023-05-07T09:47:42.835Z,21.40
2023-05-07T09:50:11.837Z,21.50
2023-05-07T09:52:41.691Z,21.60
2023-05-07T09:55:09.698Z,21.60
2023-05-07T09:57:37.470Z,21.70
2023-05-07T10:00:11.006Z,21.80
2023-05-07T10:02:47.400Z,21.90
2023-05-07T10:05:15.704Z,22.10
2023-05-07T10:07:43.493Z,22.40
2023-05-07T10:10:11.628Z,22.60
2023-05-07T10:12:42.548Z,22.70
2023-05-07T10:15:11.754Z,22.50
2023-05-07T10:17:40.688Z,22.30
2023-05-07T10:20:09.398Z,22.10
2023-05-07T10:22:44.037Z,22.00
2023-05-07T10:25:21.943Z,22.00
2023-05-07T10:27:52.090Z,21.90
2023-05-07T10:30:47.104Z,21.90
2023-05-07T10:33:18.094Z,21.80
2023-05-07T10:35:48.144Z,21.70
2023-05-07T10:38:15.648Z,21.60
2023-05-07T10:40:42.917Z,21.60
2023-05-07T10:43:11.461Z,21.70
2023-05-07T10:45:38.655Z,21.70
2023-05-07T10:48:21.451Z,21.80
2023-05-07T10:51:24.509Z,21.80
2023-05-07T10:54:29.856Z,21.90
2023-05-07T10:56:57.019Z,21.90
2023-05-07T10:59:35.857Z,21.90
2023-05-07T11:02:08.812Z,21.80
2023-05-07T11:04:36.670Z,21.80
2023-05-07T11:07:10.992Z,21.80
2023-05-07T11:09:57.466Z,21.90
2023-05-07T11:13:00.618Z,21.90
2023-05-07T11:15:43.136Z,22.10
2023-05-07T11:18:12.164Z,21.90
2023-05-07T11:20:52.154Z,22.00
2023-05-07T11:23:38.582Z,22.00
2023-05-07T11:26:08.865Z,22.00
2023-05-07T11:28:41.234Z,22.10
2023-05-07T11:31:09.311Z,22.00
2023-05-07T11:33:40.446Z,22.00
2023-05-07T11:36:09.502Z,22.00
2023-05-07T11:38:38.055Z,22.00
2023-05-07T11:41:09.048Z,22.00
2023-05-07T11:43:37.076Z,22.20
2023-05-07T11:46:12.839Z,22.20
2023-05-07T11:48:40.310Z,22.00
2023-05-07T11:51:10.131Z,21.90
2023-05-07T11:53:42.775Z,22.00
2023-05-07T11:56:15.044Z,22.00
2023-05-07T11:58:43.119Z,22.00
2023-05-07T12:01:12.517Z,22.00
2023-05-07T12:03:44.344Z,22.00
2023-05-07T12:06:12.883Z,22.00
2023-05-07T12:08:44.821Z,21.90
2023-05-07T12:11:19.562Z,21.90
2023-05-07T12:13:46.901Z,22.00
2023-05-07T12:16:14.968Z,22.10
2023-05-07T12:18:42.805Z,22.20
2023-05-07T12:21:10.896Z,22.20
2023-05-07T12:23:39.277Z,22.20
2023-05-07T12:26:07.794Z,22.00
2023-05-07T12:28:42.215Z,22.00
2023-05-07T12:31:09.609Z,22.00
2023-05-07T12:33:37.083Z,22.00
2023-05-07T12:36:07.533Z,22.00
2023-05-07T12:38:39.053Z,22.00
2023-05-07T12:41:08.307Z,22.00
2023-05-07T12:43:35.643Z,22.10
2023-05-07T12:46:06.944Z,22.10
2023-05-07T12:48:34.816Z,22.20
2023-05-07T12:51:03.366Z,22.20
2023-05-07T12:53:33.197Z,22.20
2023-05-07T12:56:01.170Z,22.00
2023-05-07T12:58:35.016Z,21.90
2023-05-07T13:01:06.199Z,21.90
2023-05-07T13:03:36.393Z,22.00
2023-05-07T13:06:05.994Z,22.00
2023-05-07T13:08:45.481Z,21.90
2023-05-07T13:11:14.172Z,21.80
2023-05-07T13:13:42.214Z,21.70
2023-05-07T13:16:12.204Z,21.60
2023-05-07T13:18:41.428Z,21.50
2023-05-07T13:21:08.979Z,21.50
2023-05-07T13:23:36.130Z,21.50
2023-05-07T13:26:08.517Z,21.40
2023-05-07T13:28:43.397Z,21.40
2023-05-07T13:31:10.828Z,21.30
2023-05-07T13:33:37.977Z,21.20
2023-05-07T13:36:06.683Z,21.10
2023-05-07T13:38:35.864Z,21.10
2023-05-07T13:41:02.997Z,21.10
2023-05-07T13:43:30.229Z,21.10
2023-05-07T13:45:57.361Z,21.20
2023-05-07T13:48:24.621Z,21.30
2023-05-07T13:50:54.928Z,21.40
2023-05-07T13:53:24.715Z,21.20
2023-05-07T13:55:51.865Z,21.30
2023-05-07T13:58:19.197Z,21.40
2023-05-07T14:00:46.594Z,21.50
2023-05-07T14:03:13.896Z,21.40
2023-05-07T14:05:41.721Z,21.40
2023-05-07T14:08:08.985Z,21.40
2023-05-07T14:10:37.147Z,21.50
2023-05-07T14:13:04.286Z,21.50
2023-05-07T14:15:33.737Z,21.50
2023-05-07T14:18:01.638Z,21.40
2023-05-07T14:20:28.885Z,21.40
2023-05-07T14:22:57.086Z,21.20
2023-05-07T14:25:25.399Z,21.20
2023-05-07T14:27:53.024Z,21.30
2023-05-07T14:30:20.690Z,21.30
2023-05-07T14:32:47.883Z,21.20
2023-05-07T14:35:15.357Z,21.10
2023-05-07T14:37:42.672Z,21.00
2023-05-07T14:40:11.042Z,21.00
2023-05-07T14:42:38.509Z,21.00
2023-05-07T14:45:06.147Z,21.10
2023-05-07T14:47:33.312Z,21.10
2023-05-07T14:50:02.187Z,21.10
2023-05-07T14:52:32.361Z,21.20
2023-05-07T14:55:01.340Z,21.10
2023-05-07T14:57:32.959Z,21.00
2023-05-07T15:00:00.350Z,20.90
2023-05-07T15:02:27.689Z,20.80
2023-05-07T15:04:54.889Z,20.70
2023-05-07T15:07:22.113Z,20.70
2023-05-07T15:09:49.265Z,20.60
2023-05-07T15:12:16.893Z,20.60
2023-05-07T15:14:44.071Z,20.70
2023-05-07T15:17:11.610Z,20.70
2023-05-07T15:19:45.002Z,20.70
2023-05-07T15:22:12.356Z,20.50
2023-05-07T15:24:39.654Z,20.50
2023-05-07T15:27:06.873Z,20.40
2023-05-07T15:29:35.751Z,20.40
2023-05-07T15:32:03.122Z,20.40
2023-05-07T15:34:32.253Z,20.40
2023-05-07T15:36:59.417Z,20.30
2023-05-07T15:39:26.945Z,20.30
2023-05-07T15:41:57.059Z,20.40
2023-05-07T15:44:29.738Z,20.50
2023-05-07T15:46:57.111Z,20.70
2023-05-07T15:49:30.184Z,21.10
2023-05-07T15:51:59.232Z,21.60
2023-05-07T15:54:26.514Z,21.90
2023-05-07T15:56:56.755Z,22.30
2023-05-07T15:59:24.626Z,22.60
2023-05-07T16:01:59.271Z,22.70
2023-05-07T16:04:28.146Z,22.80
2023-05-07T16:06:55.800Z,22.70
2023-05-07T16:09:26.132Z,22.60
2023-05-07T16:11:55.516Z,22.40
2023-05-07T16:14:25.963Z,22.00
2023-05-07T16:16:57.705Z,21.40
2023-05-07T16:19:24.831Z,21.30
2023-05-07T16:21:57.549Z,21.40
2023-05-07T16:24:27.866Z,21.50
2023-05-07T16:26:54.937Z,21.40
2023-05-07T16:29:24.828Z,21.10
2023-05-07T16:31:57.487Z,20.90
2023-05-07T16:34:27.093Z,21.10
2023-05-07T16:36:54.311Z,21.60
2023-05-07T16:39:21.402Z,21.60
2023-05-07T16:41:51.418Z,21.40
2023-05-07T16:44:21.236Z,21.30
2023-05-07T16:46:48.490Z,20.90
2023-05-07T16:49:15.815Z,20.40
2023-05-07T16:51:45.286Z,19.90
2023-05-07T16:54:12.459Z,19.50
2023-05-07T16:56:39.853Z,19.20
2023-05-07T16:59:07.462Z,18.80
2023-05-07T17:02:13.170Z,18.50
2023-05-07T17:05:47.183Z,18.20
2023-05-07T17:08:40.453Z,18.00
2023-05-07T17:11:08.972Z,17.60
2023-05-07T17:13:36.398Z,17.50
2023-05-07T17:16:06.880Z,17.40
2023-05-07T17:18:34.454Z,17.30
2023-05-07T17:21:01.576Z,17.30
2023-05-07T17:23:36.908Z,17.30
2023-05-07T17:26:04.065Z,17.20
2023-05-07T17:29:03.345Z,17.10
2023-05-07T17:31:37.046Z,17.10
2023-05-07T17:34:04.250Z,17.00
2023-05-07T17:36:38.881Z,16.90
2023-05-07T17:39:06.137Z,16.80
2023-05-07T17:41:37.408Z,16.60
2023-05-07T17:44:05.921Z,16.50
2023-05-07T17:46:33.425Z,16.30
2023-05-07T17:49:00.907Z,16.20
2023-05-07T17:51:33.821Z,16.00
2023-05-07T17:54:06.324Z,15.90
2023-05-07T17:56:33.465Z,15.70
2023-05-07T17:59:00.755Z,15.60
2023-05-07T18:01:35.900Z,15.60
2023-05-07T18:04:03.667Z,15.50
2023-05-07T18:06:30.777Z,15.30
2023-05-07T18:08:58.066Z,15.20
2023-05-07T18:11:25.556Z,15.00
2023-05-07T18:13:52.837Z,14.90
2023-05-07T18:16:20.147Z,14.70
2023-05-07T18:18:47.523Z,14.50
2023-05-07T18:21:20.439Z,14.40
2023-05-07T18:23:50.986Z,14.30
2023-05-07T18:26:18.303Z,14.20
2023-05-07T18:28:46.200Z,14.20
2023-05-07T18:31:16.887Z,14.10
2023-05-07T18:33:44.140Z,14.00
2023-05-07T18:36:11.266Z,13.90
2023-05-07T18:38:39.001Z,13.80
2023-05-07T18:41:08.624Z,13.70
2023-05-07T18:43:35.822Z,13.60
2023-05-07T18:46:03.219Z,13.60
2023-05-07T18:48:30.444Z,13.60
2023-05-07T18:50:57.575Z,13.50
2023-05-07T18:53:24.826Z,13.40
2023-05-07T18:55:52.794Z,13.30
2023-05-07T18:58:20.680Z,13.20
2023-05-07T19:00:54.248Z,13.20
2023-05-07T19:03:21.440Z,13.10
2023-05-07T19:05:49.872Z,13.10
2023-05-07T19:08:16.993Z,13.10
2023-05-07T19:10:45.118Z,13.10
2023-05-07T19:13:12.380Z,13.10
2023-05-07T19:15:40.278Z,13.10
2023-05-07T19:18:07.638Z,13.10
2023-05-07T19:20:34.873Z,13.10
2023-05-07T19:23:02.124Z,13.10
2023-05-07T19:25:31.731Z,13.00
2023-05-07T19:27:58.892Z,12.90
2023-05-07T19:30:26.169Z,12.90
2023-05-07T19:32:56.466Z,12.80
2023-05-07T19:35:23.939Z,12.80
2023-05-07T19:37:51.160Z,12.70
2023-05-07T19:40:18.389Z,12.60
2023-05-07T19:42:46.109Z,12.60
2023-05-07T19:45:15.748Z,12.60
2023-05-07T19:47:43.017Z,12.50
2023-05-07T19:50:10.699Z,12.50
2023-05-07T19:52:37.994Z,12.50
2023-05-07T19:55:06.105Z,12.40
2023-05-07T19:57:35.569Z,12.30
2023-05-07T20:00:02.877Z,12.20
2023-05-07T20:02:30.041Z,12.10
2023-05-07T20:04:57.234Z,12.10
2023-05-07T20:07:24.544Z,12.10
2023-05-07T20:09:52.888Z,12.00
2023-05-07T20:12:21.393Z,12.00
2023-05-07T20:14:48.563Z,11.90
2023-05-07T20:17:16.267Z,11.90
2023-05-07T20:19:49.565Z,11.90
2023-05-07T20:22:16.854Z,11.90
2023-05-07T20:24:43.939Z,11.90
2023-05-07T20:27:11.767Z,11.90
2023-05-07T20:29:38.890Z,11.90
2023-05-07T20:32:07.754Z,11.80
2023-05-07T20:34:35.710Z,11.70
2023-05-07T20:37:03.396Z,11.70
2023-05-07T20:39:30.455Z,11.60
2023-05-07T20:41:59.808Z,11.60
2023-05-07T20:44:26.910Z,11.50
2023-05-07T20:46:54.036Z,11.50
2023-05-07T20:49:23.095Z,11.40
2023-05-07T20:51:50.200Z,11.40
2023-05-07T20:54:18.130Z,11.30
2023-05-07T20:56:46.557Z,11.30
2023-05-07T20:59:14.139Z,11.30
2023-05-07T21:01:42.752Z,11.30
2023-05-07T21:04:11.113Z,11.20
2023-05-07T21:06:38.312Z,11.20
2023-05-07T21:09:05.486Z,11.10
2023-05-07T21:11:32.782Z,11.00
2023-05-07T21:13:59.929Z,11.00
2023-05-07T21:16:27.225Z,11.00
2023-05-07T21:18:54.404Z,10.90
2023-05-07T21:21:23.243Z,11.00
2023-05-07T21:23:50.386Z,10.90
2023-05-07T21:26:18.922Z,10.90
2023-05-07T21:28:46.423Z,10.80
2023-05-07T21:31:13.760Z,10.80
2023-05-07T21:33:41.015Z,10.80
2023-05-07T21:36:08.588Z,10.70
2023-05-07T21:38:38.403Z,10.60
2023-05-07T21:41:06.416Z,10.60
2023-05-07T21:43:33.541Z,10.50
2023-05-07T21:46:00.781Z,10.50
2023-05-07T21:48:27.934Z,10.50
2023-05-07T21:51:07.147Z,10.40
2023-05-07T21:53:36.181Z,10.40
2023-05-07T21:56:04.974Z,10.30
2023-05-07T21:58:34.750Z,10.30
2023-05-07T22:01:02.023Z,10.30
2023-05-07T22:03:29.421Z,10.30
2023-05-07T22:05:56.855Z,10.30
2023-05-07T22:08:24.414Z,10.40
2023-05-07T22:10:51.705Z,10.40
2023-05-07T22:13:18.859Z,10.40
2023-05-07T22:15:56.609Z,10.40
2023-05-07T22:18:26.477Z,10.30
2023-05-07T22:20:53.680Z,10.30
2023-05-07T22:23:20.930Z,10.20
2023-05-07T22:25:48.275Z,10.20
2023-05-07T22:28:15.997Z,10.10
2023-05-07T22:30:43.294Z,10.00
2023-05-07T22:33:10.409Z,10.00
2023-05-07T22:35:37.588Z,10.00
2023-05-07T22:38:04.706Z,9.90
2023-05-07T22:40:31.917Z,9.90
2023-05-07T22:43:01.832Z,9.80
2023-05-07T22:45:28.982Z,9.80
2023-05-07T22:47:56.250Z,9.80
2023-05-07T22:50:23.722Z,9.80
2023-05-07T22:52:50.999Z,9.80
2023-05-07T22:55:18.241Z,9.80
2023-05-07T22:57:45.697Z,9.70
2023-05-07T23:00:13.872Z,9.70
2023-05-07T23:02:41.249Z,9.70
2023-05-07T23:05:08.593Z,9.70
2023-05-07T23:07:38.887Z,9.60
2023-05-07T23:10:07.641Z,9.60
2023-05-07T23:12:34.779Z,9.60
2023-05-07T23:15:02.097Z,9.50
2023-05-07T23:17:29.834Z,9.50
2023-05-07T23:19:57.644Z,9.40
2023-05-07T23:22:24.843Z,9.40
2023-05-07T23:24:51.900Z,9.30
2023-05-07T23:27:19.026Z,9.30
2023-05-07T23:29:46.734Z,9.30
2023-05-07T23:32:13.940Z,9.20
2023-05-07T23:34:41.120Z,9.20
2023-05-07T23:37:11.429Z,9.20
2023-05-07T23:39:38.560Z,9.10
2023-05-07T23:42:05.774Z,9.10
2023-05-07T23:44:32.867Z,9.10
2023-05-07T23:46:59.925Z,9.00
2023-05-07T23:49:27.124Z,9.00
2023-05-07T23:51:54.509Z,9.00
2023-05-07T23:54:21.654Z,9.00
2023-05-07T23:56:49.337Z,8.90
2023-05-07T23:59:16.405Z,8.90
